createdAt,value
2023-02-03T00:03:56.058Z,-2.47
2023-02-03T00:09:00.965Z,-2.63
2023-02-03T00:14:05.644Z,-2.75
2023-02-03T00:19:08.751Z,-2.84
2023-02-03T00:24:11.954Z,-2.91
2023-02-03T00:29:15.374Z,-3.00
2023-02-03T00:34:18.381Z,-3.12
2023-02-03T00:39:21.376Z,-3.24
2023-02-03T00:44:24.690Z,-3.34
2023-02-03T00:49:27.796Z,-3.46
2023-02-03T00:54:32.642Z,-3.58
2023-02-03T00:59:36.564Z,-3.66
2023-02-03T01:04:39.775Z,-3.72
2023-02-03T01:09:42.773Z,-3.79
2023-02-03T01:14:45.985Z,-3.86
2023-02-03T01:19:50.622Z,-3.94
2023-02-03T01:24:53.626Z,-4.00
2023-02-03T01:29:56.842Z,-4.05
2023-02-03T01:34:59.837Z,-4.09
2023-02-03T01:40:04.073Z,-4.15
2023-02-03T01:45:08.728Z,-4.21
2023-02-03T01:50:15.403Z,-4.26
2023-02-03T01:55:23.300Z,-4.28
2023-02-03T02:00:27.265Z,-4.29
2023-02-03T02:05:39.875Z,-4.31
2023-02-03T02:10:43.078Z,-4.33
2023-02-03T02:16:02.305Z,-4.33
2023-02-03T02:21:31.377Z,-4.33
2023-02-03T02:26:44.111Z,-4.31
2023-02-03T02:32:09.741Z,-4.28
2023-02-03T02:37:18.788Z,-4.25
2023-02-03T02:42:54.103Z,-4.21
2023-02-03T02:48:05.927Z,-4.17
2023-02-03T02:53:10.495Z,-4.12
2023-02-03T02:58:16.796Z,-4.09
2023-02-03T03:03:22.702Z,-4.09
2023-02-03T03:08:53.916Z,-4.09
2023-02-03T03:13:57.533Z,-4.11
2023-02-03T03:19:07.185Z,-4.11
2023-02-03T03:24:15.719Z,-4.10
2023-02-03T03:29:25.379Z,-4.08
2023-02-03T03:34:30.573Z,-4.05
2023-02-03T03:39:55.249Z,-4.01
2023-02-03T03:45:04.808Z,-3.97
2023-02-03T03:50:12.296Z,-3.93
2023-02-03T03:55:18.747Z,-3.90
2023-02-03T04:00:24.861Z,-3.90
2023-02-03T04:05:28.804Z,-3.89
2023-02-03T04:10:36.301Z,-3.89
2023-02-03T04:15:39.613Z,-3.89
2023-02-03T04:20:42.616Z,-3.90
2023-02-03T04:25:46.027Z,-3.90
2023-02-03T04:30:49.145Z,-3.90
2023-02-03T04:35:52.130Z,-3.88
2023-02-03T04:40:55.261Z,-3.86
2023-02-03T04:46:00.393Z,-3.83
2023-02-03T04:51:04.954Z,-3.82
2023-02-03T04:56:08.081Z,-3.82
2023-02-03T05:01:11.284Z,-3.81
2023-02-03T05:06:14.353Z,-3.80
2023-02-03T05:11:17.458Z,-3.83
2023-02-03T05:16:20.924Z,-3.87
2023-02-03T05:21:24.078Z,-3.91
2023-02-03T05:26:27.188Z,-3.90
2023-02-03T05:31:30.165Z,-3.88
2023-02-03T05:36:33.299Z,-3.86
2023-02-03T05:41:56.565Z,-3.80
2023-02-03T05:47:01.122Z,-3.72
2023-02-03T05:52:04.829Z,-3.68
2023-02-03T05:57:07.834Z,-3.63
2023-02-03T06:02:10.835Z,-3.56
2023-02-03T06:07:13.739Z,-3.49
2023-02-03T06:12:16.712Z,-3.41
2023-02-03T06:17:19.636Z,-3.31
2023-02-03T06:22:22.745Z,-3.20
2023-02-03T06:27:26.052Z,-3.12
2023-02-03T06:32:29.157Z,-3.06
2023-02-03T06:37:32.777Z,-3.03
2023-02-03T06:42:35.783Z,-3.01
2023-02-03T06:47:42.376Z,-2.98
2023-02-03T06:52:45.264Z,-2.89
2023-02-03T06:57:48.591Z,-2.74
2023-02-03T07:02:55.581Z,-2.51
2023-02-03T07:07:59.398Z,-2.24
2023-02-03T07:13:04.036Z,-1.90
2023-02-03T07:18:07.057Z,-1.61
2023-02-03T07:23:09.950Z,-1.29
2023-02-03T07:28:13.339Z,-0.92
2023-02-03T07:33:16.255Z,-0.67
2023-02-03T07:38:19.665Z,-0.57
2023-02-03T07:43:23.406Z,-0.61
2023-02-03T07:48:26.390Z,-0.59
2023-02-03T07:53:29.397Z,-0.36
2023-02-03T07:58:32.605Z,0.08
2023-02-03T08:03:35.444Z,0.48
2023-02-03T08:08:38.715Z,0.99
2023-02-03T08:13:41.917Z,1.61
2023-02-03T08:18:45.554Z,2.61
2023-02-03T08:23:49.783Z,3.41
2023-02-03T08:28:52.977Z,3.61
2023-02-03T08:33:56.265Z,3.17
2023-02-03T08:38:59.290Z,2.47
2023-02-03T08:44:02.495Z,2.07
2023-02-03T08:49:06.523Z,1.81
2023-02-03T08:54:09.631Z,1.72
2023-02-03T08:59:13.048Z,1.65
2023-02-03T09:04:24.846Z,1.57
2023-02-03T09:09:29.226Z,1.44
2023-02-03T09:14:33.416Z,1.37
2023-02-03T09:19:36.852Z,1.33
2023-02-03T09:24:40.651Z,1.35
2023-02-03T09:29:43.653Z,1.51
2023-02-03T09:34:46.567Z,1.58
2023-02-03T09:39:49.636Z,1.66
2023-02-03T09:44:58.703Z,1.62
2023-02-03T09:50:04.883Z,1.50
2023-02-03T09:55:28.063Z,1.36
2023-02-03T10:00:51.318Z,1.30
2023-02-03T10:06:10.009Z,1.42
2023-02-03T10:11:18.851Z,1.48
2023-02-03T10:16:48.780Z,1.57
2023-02-03T10:21:55.572Z,1.62
2023-02-03T10:26:59.088Z,1.60
2023-02-03T10:32:02.855Z,1.61
2023-02-03T10:37:26.783Z,1.63
2023-02-03T10:42:51.511Z,1.65
2023-02-03T10:47:56.275Z,1.65
2023-02-03T10:53:19.900Z,1.67
2023-02-03T10:58:26.644Z,1.64
2023-02-03T11:03:29.964Z,1.58
2023-02-03T11:08:33.465Z,1.59
2023-02-03T11:13:36.663Z,1.59
2023-02-03T11:18:46.229Z,1.62
2023-02-03T11:23:52.716Z,1.63
2023-02-03T11:28:57.481Z,1.59
2023-02-03T11:34:03.227Z,1.61
2023-02-03T11:39:09.819Z,1.65
2023-02-03T11:44:17.319Z,1.64
2023-02-03T11:49:39.578Z,1.60
2023-02-03T11:54:54.233Z,1.50
2023-02-03T11:59:57.573Z,1.36
2023-02-03T12:05:01.348Z,1.25
2023-02-03T12:10:25.484Z,1.14
2023-02-03T12:15:36.901Z,1.04
2023-02-03T12:20:41.180Z,1.01
2023-02-03T12:25:57.235Z,0.99
2023-02-03T12:31:09.170Z,0.95
2023-02-03T12:36:19.026Z,0.91
2023-02-03T12:41:43.275Z,0.86
2023-02-03T12:47:07.102Z,0.83
2023-02-03T12:52:23.517Z,0.84
2023-02-03T12:57:26.631Z,0.83
2023-02-03T13:02:32.750Z,0.79
2023-02-03T13:07:57.763Z,0.75
2023-02-03T13:13:02.971Z,0.73
2023-02-03T13:18:12.017Z,0.71
2023-02-03T13:23:16.147Z,0.70
2023-02-03T13:28:38.099Z,0.66
2023-02-03T13:33:50.112Z,0.60
2023-02-03T13:38:53.214Z,0.55
2023-02-03T13:43:57.553Z,0.50
2023-02-03T13:49:01.985Z,0.45
2023-02-03T13:54:13.287Z,0.42
2023-02-03T13:59:16.286Z,0.38
2023-02-03T14:04:25.700Z,0.36
2023-02-03T14:09:28.847Z,0.33
2023-02-03T14:14:35.125Z,0.31
2023-02-03T14:19:50.319Z,0.29
2023-02-03T14:24:55.368Z,0.27
2023-02-03T14:30:09.967Z,0.25
2023-02-03T14:35:36.919Z,0.23
2023-02-03T14:40:55.574Z,0.18
2023-02-03T14:46:34.310Z,0.14
2023-02-03T14:51:40.504Z,0.08
2023-02-03T14:57:19.235Z,0.02
2023-02-03T15:02:25.603Z,-0.02
2023-02-03T15:07:35.893Z,-0.06
2023-02-03T15:12:38.996Z,-0.09
2023-02-03T15:17:42.214Z,-0.11
2023-02-03T15:22:46.336Z,-0.13
2023-02-03T15:27:49.582Z,-0.15
2023-02-03T15:33:03.707Z,-0.17
2023-02-03T15:38:09.377Z,-0.18
2023-02-03T15:43:22.260Z,-0.19
2023-02-03T15:48:31.608Z,-0.19
2023-02-03T15:53:47.186Z,-0.20
2023-02-03T15:58:51.210Z,-0.20
2023-02-03T16:03:55.494Z,-0.21
2023-02-03T16:09:00.126Z,-0.22
2023-02-03T16:14:08.082Z,-0.22
2023-02-03T16:19:13.441Z,-0.22
2023-02-03T16:24:35.386Z,-0.23
2023-02-03T16:29:57.028Z,-0.22
2023-02-03T16:35:19.592Z,-0.23
2023-02-03T16:40:43.377Z,-0.22
2023-02-03T16:46:17.072Z,-0.23
2023-02-03T16:51:23.614Z,-0.24
2023-02-03T16:56:27.008Z,-0.24
2023-02-03T17:01:30.131Z,-0.24
2023-02-03T17:06:34.649Z,-0.24
2023-02-03T17:11:37.865Z,-0.24
2023-02-03T17:16:41.799Z,-0.25
2023-02-03T17:21:44.904Z,-0.25
2023-02-03T17:26:47.885Z,-0.26
2023-02-03T17:31:51.068Z,-0.27
2023-02-03T17:36:55.431Z,-0.27
2023-02-03T17:58:01.197Z,-0.32
2023-02-03T18:03:04.983Z,-0.33
2023-02-03T18:08:16.303Z,-0.33
2023-02-03T18:13:24.678Z,-0.33
2023-02-03T18:18:29.676Z,-0.33
2023-02-03T18:23:33.337Z,-0.34
2023-02-03T18:28:37.256Z,-0.34
2023-02-03T18:33:40.516Z,-0.35
2023-02-03T18:38:44.853Z,-0.35
2023-02-03T18:43:49.608Z,-0.36
2023-02-03T18:48:53.650Z,-0.35
2023-02-03T18:53:58.487Z,-0.35
2023-02-03T18:59:06.110Z,-0.34
2023-02-03T19:04:09.714Z,-0.34
2023-02-03T19:09:15.582Z,-0.33
2023-02-03T19:14:19.080Z,-0.33
2023-02-03T19:19:22.258Z,-0.33
2023-02-03T19:24:27.271Z,-0.34
2023-02-03T19:29:30.478Z,-0.36
2023-02-03T19:34:33.590Z,-0.36
2023-02-03T19:39:36.586Z,-0.38
2023-02-03T19:44:39.694Z,-0.38
2023-02-03T19:49:43.720Z,-0.38
2023-02-03T19:54:46.633Z,-0.39
2023-02-03T19:59:50.036Z,-0.39
2023-02-03T20:04:53.536Z,-0.41
2023-02-03T20:09:57.172Z,-0.41
2023-02-03T20:15:01.994Z,-0.41
2023-02-03T20:20:11.571Z,-0.42
2023-02-03T20:25:16.497Z,-0.42
2023-02-03T20:30:20.769Z,-0.43
2023-02-03T20:35:24.471Z,-0.44
2023-02-03T20:40:30.065Z,-0.44
2023-02-03T20:45:35.193Z,-0.45
2023-02-03T20:50:42.580Z,-0.46
2023-02-03T20:55:48.160Z,-0.45
2023-02-03T21:00:52.058Z,-0.46
2023-02-03T21:05:56.511Z,-0.46
2023-02-03T21:11:00.350Z,-0.47
2023-02-03T21:16:13.232Z,-0.48
2023-02-03T21:21:20.394Z,-0.49
2023-02-03T21:26:28.207Z,-0.50
2023-02-03T21:31:33.142Z,-0.49
2023-02-03T21:36:38.205Z,-0.50
2023-02-03T21:41:41.229Z,-0.50
2023-02-03T21:46:44.313Z,-0.50
2023-02-03T21:51:48.958Z,-0.48
2023-02-03T21:56:52.267Z,-0.47
2023-02-03T22:01:58.034Z,-0.47
2023-02-03T22:07:01.240Z,-0.47
2023-02-03T22:12:04.657Z,-0.48
2023-02-03T22:17:07.756Z,-0.50
2023-02-03T22:22:10.860Z,-0.52
2023-02-03T22:27:14.038Z,-0.55
2023-02-03T22:32:17.280Z,-0.57
2023-02-03T22:37:20.488Z,-0.58
2023-02-03T22:42:23.589Z,-0.59
2023-02-03T22:47:27.259Z,-0.62
2023-02-03T22:52:30.318Z,-0.63
2023-02-03T22:57:33.338Z,-0.66
2023-02-03T23:02:36.633Z,-0.67
2023-02-03T23:07:40.473Z,-0.69
2023-02-03T23:12:43.417Z,-0.72
2023-02-03T23:17:46.968Z,-0.73
2023-02-03T23:22:51.118Z,-0.75
2023-02-03T23:27:54.253Z,-0.78
2023-02-03T23:32:57.616Z,-0.82
2023-02-03T23:38:00.631Z,-0.84
2023-02-03T23:43:03.728Z,-0.85
2023-02-03T23:48:07.856Z,-0.86
2023-02-03T23:53:13.813Z,-0.88
2023-02-03T23:58:20.308Z,-0.88
